Clyde, Kansas
Current Conditions -  °F | °C
As of 3:55 PM on Friday 31 Oct 2014 (Local Time) from KCNK Reporting Station
Clear Clear  
Wind Chill: 45°   Ceiling: Unl
Heat Index: 45°   Visibility: 10mi
Dew Point: 15°   Wind: 0mph
Humidity: 30%   Direction: NA
Pressure: 30.46"   Gusts: NA
Location:  39.59°N, 97.4°W
Report Text: KCNK 312055Z AUTO 00000KT 10SM CLR 07/M09 A3046 RMK AO2 SLP323 T00721094 56027
Loading
Personal Weather Stations






























Interactive Weather Map
Tropical Storm Tracking
New forecast layout! Learn more

10-Day Weather Forecast

Advertisements
Track Severe Weather on mobile